sensor_id;sensor_type;location;lat;lon;timestamp;temperature;humidity
31379;DHT22;61664;48.112;11.662;2022-11-22T00:00:41;6.40;80.90
31379;DHT22;61664;48.112;11.662;2022-11-22T00:03:08;6.40;81.00
31379;DHT22;61664;48.112;11.662;2022-11-22T00:05:35;6.40;80.90
31379;DHT22;61664;48.112;11.662;2022-11-22T00:08:03;6.40;80.70
31379;DHT22;61664;48.112;11.662;2022-11-22T00:10:30;6.40;80.60
31379;DHT22;61664;48.112;11.662;2022-11-22T00:12:57;6.40;80.50
31379;DHT22;61664;48.112;11.662;2022-11-22T00:15:24;6.50;80.80
31379;DHT22;61664;48.112;11.662;2022-11-22T00:17:51;6.50;81.00
31379;DHT22;61664;48.112;11.662;2022-11-22T00:20:18;6.50;81.10
31379;DHT22;61664;48.112;11.662;2022-11-22T00:22:45;6.60;81.20
31379;DHT22;61664;48.112;11.662;2022-11-22T00:25:12;6.60;81.10
31379;DHT22;61664;48.112;11.662;2022-11-22T00:27:40;6.60;80.70
31379;DHT22;61664;48.112;11.662;2022-11-22T00:30:07;6.60;80.40
31379;DHT22;61664;48.112;11.662;2022-11-22T00:32:35;6.70;80.60
31379;DHT22;61664;48.112;11.662;2022-11-22T00:35:03;6.70;80.60
31379;DHT22;61664;48.112;11.662;2022-11-22T00:37:30;6.70;80.70
31379;DHT22;61664;48.112;11.662;2022-11-22T00:39:57;6.70;80.90
31379;DHT22;61664;48.112;11.662;2022-11-22T00:42:24;6.80;80.80
31379;DHT22;61664;48.112;11.662;2022-11-22T00:44:54;6.80;80.90
31379;DHT22;61664;48.112;11.662;2022-11-22T00:47:21;6.70;80.80
31379;DHT22;61664;48.112;11.662;2022-11-22T00:49:47;6.80;80.50
31379;DHT22;61664;48.112;11.662;2022-11-22T00:52:14;6.80;80.50
31379;DHT22;61664;48.112;11.662;2022-11-22T00:54:41;6.80;80.70
31379;DHT22;61664;48.112;11.662;2022-11-22T00:57:08;6.90;80.70
31379;DHT22;61664;48.112;11.662;2022-11-22T00:59:35;6.90;80.70
31379;DHT22;61664;48.112;11.662;2022-11-22T01:02:02;6.90;80.20
31379;DHT22;61664;48.112;11.662;2022-11-22T01:04:29;6.90;80.30
31379;DHT22;61664;48.112;11.662;2022-11-22T01:06:55;6.90;80.40
31379;DHT22;61664;48.112;11.662;2022-11-22T01:09:23;7.00;80.60
31379;DHT22;61664;48.112;11.662;2022-11-22T01:11:50;7.00;80.40
31379;DHT22;61664;48.112;11.662;2022-11-22T01:14:18;7.00;80.40
31379;DHT22;61664;48.112;11.662;2022-11-22T01:16:46;7.00;80.80
31379;DHT22;61664;48.112;11.662;2022-11-22T01:19:13;7.00;80.90
31379;DHT22;61664;48.112;11.662;2022-11-22T01:21:40;7.00;80.70
31379;DHT22;61664;48.112;11.662;2022-11-22T01:24:07;7.10;81.00
31379;DHT22;61664;48.112;11.662;2022-11-22T01:26:34;7.10;81.10
31379;DHT22;61664;48.112;11.662;2022-11-22T01:29:01;7.20;81.30
31379;DHT22;61664;48.112;11.662;2022-11-22T01:31:28;7.20;81.30
31379;DHT22;61664;48.112;11.662;2022-11-22T01:33:56;7.30;81.20
31379;DHT22;61664;48.112;11.662;2022-11-22T01:36:25;7.30;81.20
31379;DHT22;61664;48.112;11.662;2022-11-22T01:38:52;7.40;81.40
31379;DHT22;61664;48.112;11.662;2022-11-22T01:41:21;7.40;81.50
31379;DHT22;61664;48.112;11.662;2022-11-22T01:43:48;7.50;81.40
31379;DHT22;61664;48.112;11.662;2022-11-22T01:46:33;7.70;81.20
31379;DHT22;61664;48.112;11.662;2022-11-22T01:49:40;7.60;79.70
31379;DHT22;61664;48.112;11.662;2022-11-22T01:52:21;7.70;76.20
31379;DHT22;61664;48.112;11.662;2022-11-22T01:55:04;7.70;79.30
31379;DHT22;61664;48.112;11.662;2022-11-22T01:57:37;7.70;80.00
31379;DHT22;61664;48.112;11.662;2022-11-22T02:00:09;7.80;80.50
31379;DHT22;61664;48.112;11.662;2022-11-22T02:02:37;7.80;80.60
31379;DHT22;61664;48.112;11.662;2022-11-22T02:05:08;7.80;80.80
31379;DHT22;61664;48.112;11.662;2022-11-22T02:10:13;7.80;79.80
31379;DHT22;61664;48.112;11.662;2022-11-22T02:12:43;7.90;80.70
31379;DHT22;61664;48.112;11.662;2022-11-22T02:15:11;7.90;75.60
31379;DHT22;61664;48.112;11.662;2022-11-22T02:17:38;7.80;80.60
31379;DHT22;61664;48.112;11.662;2022-11-22T02:20:06;7.90;80.60
31379;DHT22;61664;48.112;11.662;2022-11-22T02:23:25;7.90;80.40
31379;DHT22;61664;48.112;11.662;2022-11-22T02:28:24;8.00;79.30
31379;DHT22;61664;48.112;11.662;2022-11-22T02:30:52;7.90;80.30
31379;DHT22;61664;48.112;11.662;2022-11-22T02:33:19;7.90;80.20
31379;DHT22;61664;48.112;11.662;2022-11-22T02:35:46;8.00;80.20
31379;DHT22;61664;48.112;11.662;2022-11-22T02:38:20;8.00;80.10
31379;DHT22;61664;48.112;11.662;2022-11-22T02:40:52;8.00;78.80
31379;DHT22;61664;48.112;11.662;2022-11-22T02:43:31;8.00;80.30
31379;DHT22;61664;48.112;11.662;2022-11-22T02:46:05;8.00;78.10
31379;DHT22;61664;48.112;11.662;2022-11-22T02:48:42;8.10;79.40
31379;DHT22;61664;48.112;11.662;2022-11-22T02:51:10;8.10;78.70
31379;DHT22;61664;48.112;11.662;2022-11-22T02:53:43;8.10;80.40
31379;DHT22;61664;48.112;11.662;2022-11-22T02:56:10;8.10;80.30
31379;DHT22;61664;48.112;11.662;2022-11-22T02:58:37;8.10;80.60
31379;DHT22;61664;48.112;11.662;2022-11-22T03:01:04;8.20;80.90
31379;DHT22;61664;48.112;11.662;2022-11-22T03:03:32;8.30;81.10
31379;DHT22;61664;48.112;11.662;2022-11-22T03:05:59;8.20;81.00
31379;DHT22;61664;48.112;11.662;2022-11-22T03:08:27;8.20;81.20
31379;DHT22;61664;48.112;11.662;2022-11-22T03:10:58;8.40;81.40
31379;DHT22;61664;48.112;11.662;2022-11-22T03:13:25;8.30;80.80
31379;DHT22;61664;48.112;11.662;2022-11-22T03:15:52;8.40;81.40
31379;DHT22;61664;48.112;11.662;2022-11-22T03:18:19;8.40;81.50
31379;DHT22;61664;48.112;11.662;2022-11-22T03:20:46;8.50;81.70
31379;DHT22;61664;48.112;11.662;2022-11-22T03:23:13;8.50;81.70
31379;DHT22;61664;48.112;11.662;2022-11-22T03:25:40;8.50;81.80
31379;DHT22;61664;48.112;11.662;2022-11-22T03:28:07;8.50;81.70
31379;DHT22;61664;48.112;11.662;2022-11-22T03:30:38;8.60;81.70
31379;DHT22;61664;48.112;11.662;2022-11-22T03:33:06;8.70;80.80
31379;DHT22;61664;48.112;11.662;2022-11-22T03:35:33;8.60;81.40
31379;DHT22;61664;48.112;11.662;2022-11-22T03:38:00;8.70;81.30
31379;DHT22;61664;48.112;11.662;2022-11-22T03:40:27;8.70;81.40
31379;DHT22;61664;48.112;11.662;2022-11-22T03:42:54;8.80;81.50
31379;DHT22;61664;48.112;11.662;2022-11-22T03:45:24;8.80;81.50
31379;DHT22;61664;48.112;11.662;2022-11-22T03:47:51;8.80;81.60
31379;DHT22;61664;48.112;11.662;2022-11-22T03:50:18;8.80;81.40
31379;DHT22;61664;48.112;11.662;2022-11-22T03:52:45;8.90;81.00
31379;DHT22;61664;48.112;11.662;2022-11-22T03:55:11;8.80;80.30
31379;DHT22;61664;48.112;11.662;2022-11-22T03:57:38;8.80;80.30
31379;DHT22;61664;48.112;11.662;2022-11-22T04:00:08;8.70;80.40
31379;DHT22;61664;48.112;11.662;2022-11-22T04:02:36;8.70;80.40
31379;DHT22;61664;48.112;11.662;2022-11-22T04:05:03;8.60;80.80
31379;DHT22;61664;48.112;11.662;2022-11-22T04:07:30;8.60;81.10
31379;DHT22;61664;48.112;11.662;2022-11-22T04:09:57;8.60;81.50
31379;DHT22;61664;48.112;11.662;2022-11-22T04:12:24;8.60;81.80
31379;DHT22;61664;48.112;11.662;2022-11-22T04:14:50;8.60;81.60
31379;DHT22;61664;48.112;11.662;2022-11-22T04:17:37;8.60;81.80
31379;DHT22;61664;48.112;11.662;2022-11-22T04:20:08;8.60;81.50
31379;DHT22;61664;48.112;11.662;2022-11-22T04:23:06;8.60;81.80
31379;DHT22;61664;48.112;11.662;2022-11-22T04:25:37;8.60;81.70
31379;DHT22;61664;48.112;11.662;2022-11-22T04:28:07;8.60;81.90
31379;DHT22;61664;48.112;11.662;2022-11-22T04:30:35;8.60;82.10
31379;DHT22;61664;48.112;11.662;2022-11-22T04:33:21;8.60;82.10
31379;DHT22;61664;48.112;11.662;2022-11-22T04:35:49;8.60;82.00
31379;DHT22;61664;48.112;11.662;2022-11-22T04:38:17;8.60;82.00
31379;DHT22;61664;48.112;11.662;2022-11-22T04:40:45;8.60;81.90
31379;DHT22;61664;48.112;11.662;2022-11-22T04:43:20;8.60;81.80
31379;DHT22;61664;48.112;11.662;2022-11-22T04:46:11;8.60;80.80
31379;DHT22;61664;48.112;11.662;2022-11-22T04:48:39;8.60;81.70
31379;DHT22;61664;48.112;11.662;2022-11-22T04:51:08;8.50;82.10
31379;DHT22;61664;48.112;11.662;2022-11-22T04:53:58;8.50;82.30
31379;DHT22;61664;48.112;11.662;2022-11-22T04:56:25;8.50;82.80
31379;DHT22;61664;48.112;11.662;2022-11-22T04:58:52;8.50;83.20
31379;DHT22;61664;48.112;11.662;2022-11-22T05:01:19;8.40;83.40
31379;DHT22;61664;48.112;11.662;2022-11-22T05:03:46;8.50;83.90
31379;DHT22;61664;48.112;11.662;2022-11-22T05:06:13;8.50;84.10
31379;DHT22;61664;48.112;11.662;2022-11-22T05:08:40;8.50;84.20
31379;DHT22;61664;48.112;11.662;2022-11-22T05:11:07;8.60;84.30
31379;DHT22;61664;48.112;11.662;2022-11-22T05:13:35;8.60;84.30
31379;DHT22;61664;48.112;11.662;2022-11-22T05:16:05;8.60;84.20
31379;DHT22;61664;48.112;11.662;2022-11-22T05:18:34;8.60;84.20
31379;DHT22;61664;48.112;11.662;2022-11-22T05:21:06;8.60;84.20
31379;DHT22;61664;48.112;11.662;2022-11-22T05:23:35;8.70;84.00
31379;DHT22;61664;48.112;11.662;2022-11-22T05:26:25;8.70;84.30
31379;DHT22;61664;48.112;11.662;2022-11-22T05:29:06;8.70;84.00
31379;DHT22;61664;48.112;11.662;2022-11-22T05:31:39;8.70;84.00
31379;DHT22;61664;48.112;11.662;2022-11-22T05:34:06;8.70;84.00
31379;DHT22;61664;48.112;11.662;2022-11-22T05:36:33;8.80;84.20
31379;DHT22;61664;48.112;11.662;2022-11-22T05:39:01;8.70;84.20
31379;DHT22;61664;48.112;11.662;2022-11-22T05:41:28;8.70;84.30
31379;DHT22;61664;48.112;11.662;2022-11-22T05:43:56;8.70;84.20
31379;DHT22;61664;48.112;11.662;2022-11-22T05:46:28;8.80;84.20
31379;DHT22;61664;48.112;11.662;2022-11-22T05:48:56;8.70;84.10
31379;DHT22;61664;48.112;11.662;2022-11-22T05:51:27;8.70;84.00
31379;DHT22;61664;48.112;11.662;2022-11-22T05:54:01;8.80;83.80
31379;DHT22;61664;48.112;11.662;2022-11-22T05:56:28;8.70;84.10
31379;DHT22;61664;48.112;11.662;2022-11-22T05:58:55;8.70;84.10
31379;DHT22;61664;48.112;11.662;2022-11-22T06:01:23;8.70;84.40
31379;DHT22;61664;48.112;11.662;2022-11-22T06:03:50;8.70;85.00
31379;DHT22;61664;48.112;11.662;2022-11-22T06:06:18;8.80;85.40
31379;DHT22;61664;48.112;11.662;2022-11-22T06:08:46;8.80;85.80
31379;DHT22;61664;48.112;11.662;2022-11-22T06:11:17;8.90;85.90
31379;DHT22;61664;48.112;11.662;2022-11-22T06:13:48;8.90;85.50
31379;DHT22;61664;48.112;11.662;2022-11-22T06:16:17;8.90;85.40
31379;DHT22;61664;48.112;11.662;2022-11-22T06:18:44;9.00;85.20
31379;DHT22;61664;48.112;11.662;2022-11-22T06:21:14;9.00;85.10
31379;DHT22;61664;48.112;11.662;2022-11-22T06:23:43;9.00;84.80
31379;DHT22;61664;48.112;11.662;2022-11-22T06:26:13;9.00;84.50
31379;DHT22;61664;48.112;11.662;2022-11-22T06:28:42;9.00;84.10
31379;DHT22;61664;48.112;11.662;2022-11-22T06:31:22;9.00;83.80
31379;DHT22;61664;48.112;11.662;2022-11-22T06:33:53;9.00;83.50
31379;DHT22;61664;48.112;11.662;2022-11-22T06:36:29;9.00;83.70
31379;DHT22;61664;48.112;11.662;2022-11-22T06:38:58;8.90;83.10
31379;DHT22;61664;48.112;11.662;2022-11-22T06:41:27;8.90;83.90
31379;DHT22;61664;48.112;11.662;2022-11-22T06:43:57;8.90;84.00
31379;DHT22;61664;48.112;11.662;2022-11-22T06:46:25;8.90;84.30
31379;DHT22;61664;48.112;11.662;2022-11-22T06:48:52;8.90;84.40
31379;DHT22;61664;48.112;11.662;2022-11-22T06:51:22;8.90;84.50
31379;DHT22;61664;48.112;11.662;2022-11-22T06:53:50;9.00;84.50
31379;DHT22;61664;48.112;11.662;2022-11-22T06:56:58;8.90;84.50
31379;DHT22;61664;48.112;11.662;2022-11-22T06:59:18;8.90;83.90
31379;DHT22;61664;48.112;11.662;2022-11-22T07:01:45;9.00;84.50
31379;DHT22;61664;48.112;11.662;2022-11-22T07:04:12;9.00;84.50
31379;DHT22;61664;48.112;11.662;2022-11-22T07:06:39;9.00;84.50
31379;DHT22;61664;48.112;11.662;2022-11-22T07:09:07;9.00;84.40
31379;DHT22;61664;48.112;11.662;2022-11-22T07:11:36;8.90;84.40
31379;DHT22;61664;48.112;11.662;2022-11-22T07:14:04;8.90;84.50
31379;DHT22;61664;48.112;11.662;2022-11-22T07:16:38;9.00;84.70
31379;DHT22;61664;48.112;11.662;2022-11-22T07:19:08;9.00;84.50
31379;DHT22;61664;48.112;11.662;2022-11-22T07:21:35;9.00;84.30
31379;DHT22;61664;48.112;11.662;2022-11-22T07:24:06;9.00;84.50
31379;DHT22;61664;48.112;11.662;2022-11-22T07:26:33;9.00;84.30
31379;DHT22;61664;48.112;11.662;2022-11-22T07:29:00;9.00;84.30
31379;DHT22;61664;48.112;11.662;2022-11-22T07:31:27;9.00;84.20
31379;DHT22;61664;48.112;11.662;2022-11-22T07:33:55;9.00;84.20
31379;DHT22;61664;48.112;11.662;2022-11-22T07:36:23;9.00;84.10
31379;DHT22;61664;48.112;11.662;2022-11-22T07:38:50;8.90;83.80
31379;DHT22;61664;48.112;11.662;2022-11-22T07:41:18;8.90;84.10
31379;DHT22;61664;48.112;11.662;2022-11-22T07:43:45;8.90;84.30
31379;DHT22;61664;48.112;11.662;2022-11-22T07:46:26;8.90;84.50
31379;DHT22;61664;48.112;11.662;2022-11-22T07:48:59;8.90;83.40
31379;DHT22;61664;48.112;11.662;2022-11-22T07:51:27;9.00;84.60
31379;DHT22;61664;48.112;11.662;2022-11-22T07:53:54;8.90;84.50
31379;DHT22;61664;48.112;11.662;2022-11-22T07:56:22;8.90;84.30
31379;DHT22;61664;48.112;11.662;2022-11-22T07:58:49;9.00;84.20
31379;DHT22;61664;48.112;11.662;2022-11-22T08:01:17;8.90;84.10
31379;DHT22;61664;48.112;11.662;2022-11-22T08:03:45;8.90;84.40
31379;DHT22;61664;48.112;11.662;2022-11-22T08:06:13;8.90;84.50
31379;DHT22;61664;48.112;11.662;2022-11-22T08:08:42;8.90;84.40
31379;DHT22;61664;48.112;11.662;2022-11-22T08:11:09;8.90;84.50
31379;DHT22;61664;48.112;11.662;2022-11-22T08:13:36;8.90;84.50
31379;DHT22;61664;48.112;11.662;2022-11-22T08:16:06;8.90;84.60
31379;DHT22;61664;48.112;11.662;2022-11-22T08:18:37;8.90;84.40
31379;DHT22;61664;48.112;11.662;2022-11-22T08:21:11;8.90;84.50
31379;DHT22;61664;48.112;11.662;2022-11-22T08:23:39;8.90;84.60
31379;DHT22;61664;48.112;11.662;2022-11-22T08:26:10;9.00;84.90
31379;DHT22;61664;48.112;11.662;2022-11-22T08:28:38;8.90;84.80
31379;DHT22;61664;48.112;11.662;2022-11-22T08:31:09;9.00;85.00
31379;DHT22;61664;48.112;11.662;2022-11-22T08:33:40;9.00;85.10
31379;DHT22;61664;48.112;11.662;2022-11-22T08:36:08;9.00;85.10
31379;DHT22;61664;48.112;11.662;2022-11-22T08:38:34;9.00;85.00
31379;DHT22;61664;48.112;11.662;2022-11-22T08:41:02;9.00;84.90
31379;DHT22;61664;48.112;11.662;2022-11-22T08:43:31;9.10;84.60
31379;DHT22;61664;48.112;11.662;2022-11-22T08:45:58;9.00;84.70
31379;DHT22;61664;48.112;11.662;2022-11-22T08:48:28;9.10;84.80
31379;DHT22;61664;48.112;11.662;2022-11-22T08:51:00;9.10;85.00
31379;DHT22;61664;48.112;11.662;2022-11-22T08:53:34;9.10;84.30
31379;DHT22;61664;48.112;11.662;2022-11-22T08:56:05;9.10;84.20
31379;DHT22;61664;48.112;11.662;2022-11-22T08:58:35;9.10;84.10
31379;DHT22;61664;48.112;11.662;2022-11-22T09:01:11;9.10;84.10
31379;DHT22;61664;48.112;11.662;2022-11-22T09:03:41;9.10;83.70
31379;DHT22;61664;48.112;11.662;2022-11-22T09:06:14;9.10;84.30
31379;DHT22;61664;48.112;11.662;2022-11-22T09:09:03;9.10;84.00
31379;DHT22;61664;48.112;11.662;2022-11-22T09:11:50;9.00;83.90
31379;DHT22;61664;48.112;11.662;2022-11-22T09:14:17;9.10;83.90
31379;DHT22;61664;48.112;11.662;2022-11-22T09:16:44;9.00;83.90
31379;DHT22;61664;48.112;11.662;2022-11-22T09:19:10;9.00;84.40
31379;DHT22;61664;48.112;11.662;2022-11-22T09:21:37;9.00;84.50
31379;DHT22;61664;48.112;11.662;2022-11-22T09:24:04;9.00;84.70
31379;DHT22;61664;48.112;11.662;2022-11-22T09:26:31;9.00;84.70
31379;DHT22;61664;48.112;11.662;2022-11-22T09:28:58;9.00;84.70
31379;DHT22;61664;48.112;11.662;2022-11-22T09:31:25;9.00;84.90
31379;DHT22;61664;48.112;11.662;2022-11-22T09:33:52;9.00;84.90
31379;DHT22;61664;48.112;11.662;2022-11-22T09:36:21;9.00;84.70
31379;DHT22;61664;48.112;11.662;2022-11-22T09:38:50;9.00;84.10
31379;DHT22;61664;48.112;11.662;2022-11-22T09:47:49;9.10;85.40
31379;DHT22;61664;48.112;11.662;2022-11-22T09:53:49;9.20;84.80
31379;DHT22;61664;48.112;11.662;2022-11-22T09:56:23;9.20;83.70
31379;DHT22;61664;48.112;11.662;2022-11-22T09:59:20;9.30;85.10
31379;DHT22;61664;48.112;11.662;2022-11-22T10:02:07;9.30;83.00
31379;DHT22;61664;48.112;11.662;2022-11-22T10:04:56;9.30;85.10
31379;DHT22;61664;48.112;11.662;2022-11-22T10:07:30;9.30;84.10
31379;DHT22;61664;48.112;11.662;2022-11-22T10:10:06;9.40;85.10
31379;DHT22;61664;48.112;11.662;2022-11-22T10:15:35;9.50;84.50
31379;DHT22;61664;48.112;11.662;2022-11-22T10:18:10;9.40;83.70
31379;DHT22;61664;48.112;11.662;2022-11-22T10:20:43;9.40;83.60
31379;DHT22;61664;48.112;11.662;2022-11-22T10:23:24;9.40;83.20
31379;DHT22;61664;48.112;11.662;2022-11-22T10:25:56;9.40;82.10
31379;DHT22;61664;48.112;11.662;2022-11-22T10:28:46;9.30;82.50
31379;DHT22;61664;48.112;11.662;2022-11-22T10:31:26;9.40;82.00
31379;DHT22;61664;48.112;11.662;2022-11-22T10:46:27;9.10;81.80
31379;DHT22;61664;48.112;11.662;2022-11-22T10:52:00;9.10;81.80
31379;DHT22;61664;48.112;11.662;2022-11-22T10:57:40;9.10;83.50
31379;DHT22;61664;48.112;11.662;2022-11-22T11:00:21;9.10;84.90
31379;DHT22;61664;48.112;11.662;2022-11-22T11:03:23;9.20;84.60
31379;DHT22;61664;48.112;11.662;2022-11-22T11:09:02;9.20;84.30
31379;DHT22;61664;48.112;11.662;2022-11-22T11:11:52;9.30;84.40
31379;DHT22;61664;48.112;11.662;2022-11-22T11:14:41;9.30;85.30
31379;DHT22;61664;48.112;11.662;2022-11-22T11:17:22;9.40;83.50
31379;DHT22;61664;48.112;11.662;2022-11-22T11:19:56;9.40;84.00
31379;DHT22;61664;48.112;11.662;2022-11-22T11:22:31;9.40;84.90
31379;DHT22;61664;48.112;11.662;2022-11-22T11:28:03;9.50;84.00
31379;DHT22;61664;48.112;11.662;2022-11-22T11:30:47;9.50;84.80
31379;DHT22;61664;48.112;11.662;2022-11-22T11:33:32;9.50;82.70
31379;DHT22;61664;48.112;11.662;2022-11-22T11:36:16;9.60;83.50
31379;DHT22;61664;48.112;11.662;2022-11-22T11:41:33;9.60;84.20
31379;DHT22;61664;48.112;11.662;2022-11-22T11:44:27;9.60;81.90
31379;DHT22;61664;48.112;11.662;2022-11-22T11:46:59;9.50;81.10
31379;DHT22;61664;48.112;11.662;2022-11-22T11:49:28;9.50;83.80
31379;DHT22;61664;48.112;11.662;2022-11-22T11:52:04;9.40;83.60
31379;DHT22;61664;48.112;11.662;2022-11-22T11:54:46;9.40;83.30
31379;DHT22;61664;48.112;11.662;2022-11-22T11:59:58;9.50;83.40
31379;DHT22;61664;48.112;11.662;2022-11-22T12:02:41;9.30;82.80
31379;DHT22;61664;48.112;11.662;2022-11-22T12:07:40;9.30;82.70
31379;DHT22;61664;48.112;11.662;2022-11-22T12:13:42;9.20;80.20
31379;DHT22;61664;48.112;11.662;2022-11-22T12:16:40;9.20;79.70
31379;DHT22;61664;48.112;11.662;2022-11-22T12:19:27;9.10;81.00
31379;DHT22;61664;48.112;11.662;2022-11-22T12:25:37;9.00;79.20
31379;DHT22;61664;48.112;11.662;2022-11-22T12:28:11;8.90;79.90
31379;DHT22;61664;48.112;11.662;2022-11-22T12:37:00;8.70;80.50
31379;DHT22;61664;48.112;11.662;2022-11-22T12:39:35;8.70;81.30
31379;DHT22;61664;48.112;11.662;2022-11-22T12:42:12;8.70;83.20
31379;DHT22;61664;48.112;11.662;2022-11-22T12:45:08;8.70;83.10
31379;DHT22;61664;48.112;11.662;2022-11-22T12:47:40;8.70;84.10
31379;DHT22;61664;48.112;11.662;2022-11-22T12:50:36;8.70;84.70
31379;DHT22;61664;48.112;11.662;2022-11-22T12:53:12;8.70;83.00
31379;DHT22;61664;48.112;11.662;2022-11-22T12:55:47;8.70;84.30
31379;DHT22;61664;48.112;11.662;2022-11-22T13:06:53;8.80;84.00
31379;DHT22;61664;48.112;11.662;2022-11-22T13:09:35;8.80;82.40
31379;DHT22;61664;48.112;11.662;2022-11-22T13:12:22;8.70;83.40
31379;DHT22;61664;48.112;11.662;2022-11-22T13:14:53;8.80;82.90
31379;DHT22;61664;48.112;11.662;2022-11-22T13:17:22;8.70;84.40
31379;DHT22;61664;48.112;11.662;2022-11-22T13:19:53;8.70;84.80
31379;DHT22;61664;48.112;11.662;2022-11-22T13:28:32;8.80;84.20
31379;DHT22;61664;48.112;11.662;2022-11-22T13:33:41;8.80;85.50
31379;DHT22;61664;48.112;11.662;2022-11-22T13:36:35;8.90;85.80
31379;DHT22;61664;48.112;11.662;2022-11-22T13:39:09;8.90;83.90
31379;DHT22;61664;48.112;11.662;2022-11-22T13:44:33;9.00;84.30
31379;DHT22;61664;48.112;11.662;2022-11-22T13:49:44;9.00;85.00
31379;DHT22;61664;48.112;11.662;2022-11-22T14:02:44;9.10;82.90
31379;DHT22;61664;48.112;11.662;2022-11-22T14:08:04;9.10;82.60
31379;DHT22;61664;48.112;11.662;2022-11-22T14:16:19;9.00;83.60
31379;DHT22;61664;48.112;11.662;2022-11-22T14:30:19;9.00;83.30
31379;DHT22;61664;48.112;11.662;2022-11-22T14:32:59;8.90;83.40
31379;DHT22;61664;48.112;11.662;2022-11-22T14:35:36;8.90;83.00
31379;DHT22;61664;48.112;11.662;2022-11-22T14:44:17;8.80;81.10
31379;DHT22;61664;48.112;11.662;2022-11-22T14:47:00;8.80;83.50
31379;DHT22;61664;48.112;11.662;2022-11-22T14:49:44;8.70;83.50
31379;DHT22;61664;48.112;11.662;2022-11-22T14:52:23;8.70;82.20
31379;DHT22;61664;48.112;11.662;2022-11-22T14:54:57;8.70;82.80
31379;DHT22;61664;48.112;11.662;2022-11-22T14:57:28;8.70;83.60
31379;DHT22;61664;48.112;11.662;2022-11-22T15:00:20;8.60;83.90
31379;DHT22;61664;48.112;11.662;2022-11-22T15:05:53;8.60;83.50
31379;DHT22;61664;48.112;11.662;2022-11-22T15:18:39;8.50;83.60
31379;DHT22;61664;48.112;11.662;2022-11-22T15:21:34;8.60;83.70
31379;DHT22;61664;48.112;11.662;2022-11-22T15:24:25;8.50;83.70
31379;DHT22;61664;48.112;11.662;2022-11-22T15:30:23;8.40;83.70
31379;DHT22;61664;48.112;11.662;2022-11-22T15:33:15;8.40;83.90
31379;DHT22;61664;48.112;11.662;2022-11-22T15:39:34;8.40;82.60
31379;DHT22;61664;48.112;11.662;2022-11-22T15:42:23;8.40;83.70
31379;DHT22;61664;48.112;11.662;2022-11-22T15:45:11;8.40;80.80
31379;DHT22;61664;48.112;11.662;2022-11-22T15:48:04;8.40;83.90
31379;DHT22;61664;48.112;11.662;2022-11-22T15:56:56;8.40;83.40
31379;DHT22;61664;48.112;11.662;2022-11-22T15:59:43;8.40;84.10
31379;DHT22;61664;48.112;11.662;2022-11-22T16:02:26;8.40;84.30
31379;DHT22;61664;48.112;11.662;2022-11-22T16:05:06;8.40;82.80
31379;DHT22;61664;48.112;11.662;2022-11-22T16:07:54;8.40;83.30
31379;DHT22;61664;48.112;11.662;2022-11-22T16:10:24;8.40;84.30
31379;DHT22;61664;48.112;11.662;2022-11-22T16:15:44;8.40;82.40
31379;DHT22;61664;48.112;11.662;2022-11-22T16:18:30;8.40;84.30
31379;DHT22;61664;48.112;11.662;2022-11-22T16:23:40;8.40;84.20
31379;DHT22;61664;48.112;11.662;2022-11-22T16:26:18;8.40;84.40
31379;DHT22;61664;48.112;11.662;2022-11-22T16:29:09;8.40;83.30
31379;DHT22;61664;48.112;11.662;2022-11-22T16:31:43;8.40;84.10
31379;DHT22;61664;48.112;11.662;2022-11-22T16:34:16;8.40;84.00
31379;DHT22;61664;48.112;11.662;2022-11-22T16:36:43;8.40;83.90
31379;DHT22;61664;48.112;11.662;2022-11-22T16:39:10;8.50;83.90
31379;DHT22;61664;48.112;11.662;2022-11-22T16:41:37;8.50;84.10
31379;DHT22;61664;48.112;11.662;2022-11-22T16:44:10;8.40;84.00
31379;DHT22;61664;48.112;11.662;2022-11-22T16:46:40;8.50;83.10
31379;DHT22;61664;48.112;11.662;2022-11-22T16:49:18;8.40;83.70
31379;DHT22;61664;48.112;11.662;2022-11-22T16:51:48;8.40;83.00
31379;DHT22;61664;48.112;11.662;2022-11-22T16:54:18;8.40;83.90
31379;DHT22;61664;48.112;11.662;2022-11-22T16:56:46;8.40;84.00
31379;DHT22;61664;48.112;11.662;2022-11-22T16:59:13;8.40;84.10
31379;DHT22;61664;48.112;11.662;2022-11-22T17:01:41;8.40;84.30
31379;DHT22;61664;48.112;11.662;2022-11-22T17:04:23;8.30;84.40
31379;DHT22;61664;48.112;11.662;2022-11-22T17:06:51;8.40;83.20
31379;DHT22;61664;48.112;11.662;2022-11-22T17:09:19;8.40;84.50
31379;DHT22;61664;48.112;11.662;2022-11-22T17:11:46;8.40;84.40
31379;DHT22;61664;48.112;11.662;2022-11-22T17:14:14;8.40;84.10
31379;DHT22;61664;48.112;11.662;2022-11-22T17:16:44;8.40;83.90
31379;DHT22;61664;48.112;11.662;2022-11-22T17:19:13;8.30;84.10
31379;DHT22;61664;48.112;11.662;2022-11-22T17:22:02;8.40;83.80
31379;DHT22;61664;48.112;11.662;2022-11-22T17:24:32;8.30;83.90
31379;DHT22;61664;48.112;11.662;2022-11-22T17:27:00;8.40;84.00
31379;DHT22;61664;48.112;11.662;2022-11-22T17:29:27;8.40;84.00
31379;DHT22;61664;48.112;11.662;2022-11-22T17:32:14;8.30;84.00
31379;DHT22;61664;48.112;11.662;2022-11-22T17:34:41;8.30;84.10
31379;DHT22;61664;48.112;11.662;2022-11-22T17:37:11;8.30;84.10
31379;DHT22;61664;48.112;11.662;2022-11-22T17:39:39;8.30;83.80
31379;DHT22;61664;48.112;11.662;2022-11-22T17:42:06;8.30;83.90
31379;DHT22;61664;48.112;11.662;2022-11-22T17:44:33;8.30;84.00
31379;DHT22;61664;48.112;11.662;2022-11-22T17:47:00;8.30;84.00
31379;DHT22;61664;48.112;11.662;2022-11-22T17:49:27;8.40;83.90
31379;DHT22;61664;48.112;11.662;2022-11-22T17:51:54;8.30;83.90
31379;DHT22;61664;48.112;11.662;2022-11-22T17:54:21;8.30;83.70
31379;DHT22;61664;48.112;11.662;2022-11-22T17:56:48;8.30;83.70
31379;DHT22;61664;48.112;11.662;2022-11-22T17:59:15;8.30;83.80
31379;DHT22;61664;48.112;11.662;2022-11-22T18:01:42;8.50;83.80
31379;DHT22;61664;48.112;11.662;2022-11-22T18:04:09;8.30;83.70
31379;DHT22;61664;48.112;11.662;2022-11-22T18:06:36;8.40;83.80
31379;DHT22;61664;48.112;11.662;2022-11-22T18:09:03;8.30;83.60
31379;DHT22;61664;48.112;11.662;2022-11-22T18:11:30;8.40;83.70
31379;DHT22;61664;48.112;11.662;2022-11-22T18:13:57;8.30;83.50
31379;DHT22;61664;48.112;11.662;2022-11-22T18:16:24;8.40;83.70
31379;DHT22;61664;48.112;11.662;2022-11-22T18:18:54;8.40;83.50
31379;DHT22;61664;48.112;11.662;2022-11-22T18:21:24;8.40;83.60
31379;DHT22;61664;48.112;11.662;2022-11-22T18:23:52;8.40;83.70
31379;DHT22;61664;48.112;11.662;2022-11-22T18:26:19;8.40;83.70
31379;DHT22;61664;48.112;11.662;2022-11-22T18:29:07;8.40;83.80
31379;DHT22;61664;48.112;11.662;2022-11-22T18:31:54;8.40;83.80
31379;DHT22;61664;48.112;11.662;2022-11-22T18:34:21;8.40;83.80
31379;DHT22;61664;48.112;11.662;2022-11-22T18:36:49;8.40;83.70